Southbridge, Massachusetts
Current Conditions -  °F | °C
As of 12:08 PM on Thursday 27 Nov 2014 (Local Time) from KORH Reporting Station
Overcast Overcast  
Wind Chill: 22°   Ceiling: 900
Heat Index: 31°   Visibility: 10mi
Dew Point: 27°   Wind: 12mph
Humidity: 85%   Direction: 290°WNW
Pressure: 29.91"   Gusts: NA
Location:  42.07°N, 72.03°W
Report Text: KORH 271708Z 29010KT 10SM BKN009 OVC030 M01/M03 A2991 RMK AO2 T10061028
Loading
Personal Weather Stations






























Interactive Weather Map New forecast layout! Learn more

10-Day Weather Forecast

Advertisements
Track Severe Weather on mobile